sensor_id;sensor_type;location;lat;lon;timestamp;temperature;humidity
67279;DHT22;54193;53.746;10.058;2022-08-19T00:01:57;18.77;87.18
67279;DHT22;54193;53.746;10.058;2022-08-19T00:04:42;18.83;87.26
67279;DHT22;54193;53.746;10.058;2022-08-19T00:07:28;18.91;87.05
67279;DHT22;54193;53.746;10.058;2022-08-19T00:10:15;18.93;86.89
67279;DHT22;54193;53.746;10.058;2022-08-19T00:13:00;18.89;86.57
67279;DHT22;54193;53.746;10.058;2022-08-19T00:15:46;18.81;86.83
67279;DHT22;54193;53.746;10.058;2022-08-19T00:18:33;18.82;86.83
67279;DHT22;54193;53.746;10.058;2022-08-19T00:21:19;18.85;87.02
67279;DHT22;54193;53.746;10.058;2022-08-19T00:24:06;18.82;86.82
67279;DHT22;54193;53.746;10.058;2022-08-19T00:26:52;18.79;87.16
67279;DHT22;54193;53.746;10.058;2022-08-19T00:29:38;18.75;87.22
67279;DHT22;54193;53.746;10.058;2022-08-19T00:32:24;18.72;87.51
67279;DHT22;54193;53.746;10.058;2022-08-19T00:35:10;18.65;87.68
67279;DHT22;54193;53.746;10.058;2022-08-19T00:37:56;18.62;87.97
67279;DHT22;54193;53.746;10.058;2022-08-19T00:40:43;18.59;88.11
67279;DHT22;54193;53.746;10.058;2022-08-19T00:43:32;18.52;88.38
67279;DHT22;54193;53.746;10.058;2022-08-19T00:46:17;18.52;88.35
67279;DHT22;54193;53.746;10.058;2022-08-19T00:49:11;18.55;88.52
67279;DHT22;54193;53.746;10.058;2022-08-19T00:52:03;18.55;88.65
67279;DHT22;54193;53.746;10.058;2022-08-19T00:54:50;18.58;88.75
67279;DHT22;54193;53.746;10.058;2022-08-19T00:57:40;18.54;89.01
67279;DHT22;54193;53.746;10.058;2022-08-19T01:00:28;18.51;89.17
67279;DHT22;54193;53.746;10.058;2022-08-19T01:03:17;18.51;89.37
67279;DHT22;54193;53.746;10.058;2022-08-19T01:06:03;18.48;89.47
67279;DHT22;54193;53.746;10.058;2022-08-19T01:08:48;18.45;89.41
67279;DHT22;54193;53.746;10.058;2022-08-19T01:11:37;18.45;89.70
67279;DHT22;54193;53.746;10.058;2022-08-19T01:14:25;18.48;89.78
67279;DHT22;54193;53.746;10.058;2022-08-19T01:17:11;18.47;89.77
67279;DHT22;54193;53.746;10.058;2022-08-19T01:19:57;18.44;89.84
67279;DHT22;54193;53.746;10.058;2022-08-19T01:25:51;18.48;89.74
67279;DHT22;54193;53.746;10.058;2022-08-19T01:28:38;18.48;89.66
67279;DHT22;54193;53.746;10.058;2022-08-19T01:31:26;18.47;89.69
67279;DHT22;54193;53.746;10.058;2022-08-19T01:34:12;18.48;89.58
67279;DHT22;54193;53.746;10.058;2022-08-19T01:36:57;18.54;89.56
67279;DHT22;54193;53.746;10.058;2022-08-19T01:39:43;18.55;89.60
67279;DHT22;54193;53.746;10.058;2022-08-19T01:42:29;18.47;89.67
67279;DHT22;54193;53.746;10.058;2022-08-19T01:45:18;18.43;89.73
67279;DHT22;54193;53.746;10.058;2022-08-19T01:48:04;18.41;90.05
67279;DHT22;54193;53.746;10.058;2022-08-19T01:50:50;18.35;90.22
67279;DHT22;54193;53.746;10.058;2022-08-19T01:53:36;18.34;90.30
67279;DHT22;54193;53.746;10.058;2022-08-19T01:56:23;18.35;90.53
67279;DHT22;54193;53.746;10.058;2022-08-19T01:59:16;18.27;90.44
67279;DHT22;54193;53.746;10.058;2022-08-19T02:02:04;18.18;90.81
67279;DHT22;54193;53.746;10.058;2022-08-19T02:04:52;18.21;90.67
67279;DHT22;54193;53.746;10.058;2022-08-19T02:07:39;18.28;90.64
67279;DHT22;54193;53.746;10.058;2022-08-19T02:10:25;18.24;90.69
67279;DHT22;54193;53.746;10.058;2022-08-19T02:13:12;18.27;90.72
67279;DHT22;54193;53.746;10.058;2022-08-19T02:15:58;18.28;90.74
67279;DHT22;54193;53.746;10.058;2022-08-19T02:18:45;18.27;90.77
67279;DHT22;54193;53.746;10.058;2022-08-19T02:21:33;18.24;90.98
67279;DHT22;54193;53.746;10.058;2022-08-19T02:24:18;18.17;91.13
67279;DHT22;54193;53.746;10.058;2022-08-19T02:27:04;18.14;91.32
67279;DHT22;54193;53.746;10.058;2022-08-19T02:29:52;18.11;91.67
67279;DHT22;54193;53.746;10.058;2022-08-19T02:32:37;18.04;91.68
67279;DHT22;54193;53.746;10.058;2022-08-19T02:35:23;18.06;91.61
67279;DHT22;54193;53.746;10.058;2022-08-19T02:38:09;18.07;91.37
67279;DHT22;54193;53.746;10.058;2022-08-19T02:41:16;18.06;91.56
67279;DHT22;54193;53.746;10.058;2022-08-19T02:44:03;17.97;91.56
67279;DHT22;54193;53.746;10.058;2022-08-19T02:46:49;17.99;91.72
67279;DHT22;54193;53.746;10.058;2022-08-19T02:49:35;17.94;91.76
67279;DHT22;54193;53.746;10.058;2022-08-19T02:52:21;18.03;91.52
67279;DHT22;54193;53.746;10.058;2022-08-19T02:55:08;18.07;91.52
67279;DHT22;54193;53.746;10.058;2022-08-19T02:57:54;18.10;91.37
67279;DHT22;54193;53.746;10.058;2022-08-19T03:00:45;18.00;91.40
67279;DHT22;54193;53.746;10.058;2022-08-19T03:03:31;18.10;91.58
67279;DHT22;54193;53.746;10.058;2022-08-19T03:06:18;18.17;91.32
67279;DHT22;54193;53.746;10.058;2022-08-19T03:09:04;18.13;90.93
67279;DHT22;54193;53.746;10.058;2022-08-19T03:11:49;18.21;90.77
67279;DHT22;54193;53.746;10.058;2022-08-19T03:14:36;18.07;91.03
67279;DHT22;54193;53.746;10.058;2022-08-19T03:17:22;18.07;91.02
67279;DHT22;54193;53.746;10.058;2022-08-19T03:20:08;18.09;90.72
67279;DHT22;54193;53.746;10.058;2022-08-19T03:22:53;18.10;90.83
67279;DHT22;54193;53.746;10.058;2022-08-19T03:25:41;18.11;90.86
67279;DHT22;54193;53.746;10.058;2022-08-19T03:28:28;18.09;90.78
67279;DHT22;54193;53.746;10.058;2022-08-19T03:31:14;18.11;90.98
67279;DHT22;54193;53.746;10.058;2022-08-19T03:33:59;18.01;91.08
67279;DHT22;54193;53.746;10.058;2022-08-19T03:36:46;18.01;91.22
67279;DHT22;54193;53.746;10.058;2022-08-19T03:39:32;18.00;91.25
67279;DHT22;54193;53.746;10.058;2022-08-19T03:42:18;18.07;91.02
67279;DHT22;54193;53.746;10.058;2022-08-19T03:45:04;18.07;91.01
67279;DHT22;54193;53.746;10.058;2022-08-19T03:47:49;18.04;91.10
67279;DHT22;54193;53.746;10.058;2022-08-19T03:50:39;18.03;91.25
67279;DHT22;54193;53.746;10.058;2022-08-19T03:53:29;18.01;91.09
67279;DHT22;54193;53.746;10.058;2022-08-19T03:56:15;18.14;91.07
67279;DHT22;54193;53.746;10.058;2022-08-19T03:59:02;18.10;91.10
67279;DHT22;54193;53.746;10.058;2022-08-19T04:01:48;18.04;91.25
67279;DHT22;54193;53.746;10.058;2022-08-19T04:04:34;17.99;91.36
67279;DHT22;54193;53.746;10.058;2022-08-19T04:07:21;17.97;91.44
67279;DHT22;54193;53.746;10.058;2022-08-19T04:10:07;17.93;91.47
67279;DHT22;54193;53.746;10.058;2022-08-19T04:12:53;17.93;91.58
67279;DHT22;54193;53.746;10.058;2022-08-19T04:15:40;17.93;91.36
67279;DHT22;54193;53.746;10.058;2022-08-19T04:18:27;17.89;91.28
67279;DHT22;54193;53.746;10.058;2022-08-19T04:21:23;17.93;91.34
67279;DHT22;54193;53.746;10.058;2022-08-19T04:24:09;17.90;91.27
67279;DHT22;54193;53.746;10.058;2022-08-19T04:26:55;17.86;91.52
67279;DHT22;54193;53.746;10.058;2022-08-19T04:29:41;17.87;91.65
67279;DHT22;54193;53.746;10.058;2022-08-19T04:32:27;17.89;91.54
67279;DHT22;54193;53.746;10.058;2022-08-19T04:35:12;17.86;91.59
67279;DHT22;54193;53.746;10.058;2022-08-19T04:37:58;17.89;91.58
67279;DHT22;54193;53.746;10.058;2022-08-19T04:40:46;17.90;91.62
67279;DHT22;54193;53.746;10.058;2022-08-19T04:43:50;17.93;91.48
67279;DHT22;54193;53.746;10.058;2022-08-19T04:46:36;17.91;91.38
67279;DHT22;54193;53.746;10.058;2022-08-19T04:49:23;17.86;91.53
67279;DHT22;54193;53.746;10.058;2022-08-19T04:52:09;17.91;91.45
67279;DHT22;54193;53.746;10.058;2022-08-19T04:54:54;17.96;91.52
67279;DHT22;54193;53.746;10.058;2022-08-19T04:57:40;17.97;91.34
67279;DHT22;54193;53.746;10.058;2022-08-19T05:00:26;17.99;91.31
67279;DHT22;54193;53.746;10.058;2022-08-19T05:03:12;17.99;91.09
67279;DHT22;54193;53.746;10.058;2022-08-19T05:06:05;17.99;91.17
67279;DHT22;54193;53.746;10.058;2022-08-19T05:08:52;18.04;90.83
67279;DHT22;54193;53.746;10.058;2022-08-19T05:11:38;17.99;91.01
67279;DHT22;54193;53.746;10.058;2022-08-19T05:14:24;18.00;91.05
67279;DHT22;54193;53.746;10.058;2022-08-19T05:17:10;18.09;90.94
67279;DHT22;54193;53.746;10.058;2022-08-19T05:19:56;18.09;90.80
67279;DHT22;54193;53.746;10.058;2022-08-19T05:23:00;18.11;90.71
67279;DHT22;54193;53.746;10.058;2022-08-19T05:25:47;18.17;90.62
67279;DHT22;54193;53.746;10.058;2022-08-19T05:28:32;18.21;90.64
67279;DHT22;54193;53.746;10.058;2022-08-19T05:31:18;18.20;90.61
67279;DHT22;54193;53.746;10.058;2022-08-19T05:34:05;18.24;90.56
67279;DHT22;54193;53.746;10.058;2022-08-19T05:36:57;18.33;90.28
67279;DHT22;54193;53.746;10.058;2022-08-19T05:39:44;18.38;89.99
67279;DHT22;54193;53.746;10.058;2022-08-19T05:42:30;18.43;89.93
67279;DHT22;54193;53.746;10.058;2022-08-19T05:45:16;18.38;89.65
67279;DHT22;54193;53.746;10.058;2022-08-19T05:48:02;18.23;90.45
67279;DHT22;54193;53.746;10.058;2022-08-19T05:50:47;18.26;90.42
67279;DHT22;54193;53.746;10.058;2022-08-19T05:53:35;18.24;90.41
67279;DHT22;54193;53.746;10.058;2022-08-19T05:56:21;18.23;90.60
67279;DHT22;54193;53.746;10.058;2022-08-19T05:59:08;18.27;90.34
67279;DHT22;54193;53.746;10.058;2022-08-19T06:01:56;18.35;90.04
67279;DHT22;54193;53.746;10.058;2022-08-19T06:04:42;18.38;89.80
67279;DHT22;54193;53.746;10.058;2022-08-19T06:07:28;18.30;90.31
67279;DHT22;54193;53.746;10.058;2022-08-19T06:10:14;18.20;90.38
67279;DHT22;54193;53.746;10.058;2022-08-19T06:12:59;18.24;90.21
67279;DHT22;54193;53.746;10.058;2022-08-19T06:15:46;18.26;90.23
67279;DHT22;54193;53.746;10.058;2022-08-19T06:18:31;18.40;90.01
67279;DHT22;54193;53.746;10.058;2022-08-19T06:21:26;18.26;89.97
67279;DHT22;54193;53.746;10.058;2022-08-19T06:24:16;18.26;90.28
67279;DHT22;54193;53.746;10.058;2022-08-19T06:27:03;18.34;90.01
67279;DHT22;54193;53.746;10.058;2022-08-19T06:29:50;18.43;89.84
67279;DHT22;54193;53.746;10.058;2022-08-19T06:32:36;18.16;90.48
67279;DHT22;54193;53.746;10.058;2022-08-19T06:35:23;18.21;90.79
67279;DHT22;54193;53.746;10.058;2022-08-19T06:38:09;18.27;90.42
67279;DHT22;54193;53.746;10.058;2022-08-19T06:41:03;18.24;90.78
67279;DHT22;54193;53.746;10.058;2022-08-19T06:43:49;18.23;90.97
67279;DHT22;54193;53.746;10.058;2022-08-19T06:46:35;18.38;90.70
67279;DHT22;54193;53.746;10.058;2022-08-19T06:49:22;18.30;90.31
67279;DHT22;54193;53.746;10.058;2022-08-19T06:52:09;18.41;90.10
67279;DHT22;54193;53.746;10.058;2022-08-19T06:54:57;18.48;89.85
67279;DHT22;54193;53.746;10.058;2022-08-19T06:57:43;18.49;89.72
67279;DHT22;54193;53.746;10.058;2022-08-19T07:00:31;18.44;90.04
67279;DHT22;54193;53.746;10.058;2022-08-19T07:03:16;18.48;89.81
67279;DHT22;54193;53.746;10.058;2022-08-19T07:06:09;18.59;89.36
67279;DHT22;54193;53.746;10.058;2022-08-19T07:08:55;18.66;89.30
67279;DHT22;54193;53.746;10.058;2022-08-19T07:11:52;18.64;89.19
67279;DHT22;54193;53.746;10.058;2022-08-19T07:14:38;18.55;89.28
67279;DHT22;54193;53.746;10.058;2022-08-19T07:17:25;18.51;89.58
67279;DHT22;54193;53.746;10.058;2022-08-19T07:20:11;18.59;89.25
67279;DHT22;54193;53.746;10.058;2022-08-19T07:22:56;18.55;89.12
67279;DHT22;54193;53.746;10.058;2022-08-19T07:25:42;18.56;89.07
67279;DHT22;54193;53.746;10.058;2022-08-19T07:28:28;18.51;88.92
67279;DHT22;54193;53.746;10.058;2022-08-19T07:31:17;18.49;89.06
67279;DHT22;54193;53.746;10.058;2022-08-19T07:34:08;18.48;89.28
67279;DHT22;54193;53.746;10.058;2022-08-19T07:36:54;18.59;89.11
67279;DHT22;54193;53.746;10.058;2022-08-19T07:39:40;18.61;88.91
67279;DHT22;54193;53.746;10.058;2022-08-19T07:42:27;18.72;88.61
67279;DHT22;54193;53.746;10.058;2022-08-19T07:45:14;18.75;88.60
67279;DHT22;54193;53.746;10.058;2022-08-19T07:48:01;18.77;88.66
67279;DHT22;54193;53.746;10.058;2022-08-19T07:50:47;18.92;88.46
67279;DHT22;54193;53.746;10.058;2022-08-19T07:53:35;19.04;87.55
67279;DHT22;54193;53.746;10.058;2022-08-19T07:56:21;19.11;87.31
67279;DHT22;54193;53.746;10.058;2022-08-19T07:59:07;19.07;87.37
67279;DHT22;54193;53.746;10.058;2022-08-19T08:01:56;19.13;87.43
67279;DHT22;54193;53.746;10.058;2022-08-19T08:04:42;19.19;87.35
67279;DHT22;54193;53.746;10.058;2022-08-19T08:08:03;19.24;87.32
67279;DHT22;54193;53.746;10.058;2022-08-19T08:11:07;19.31;87.08
67279;DHT22;54193;53.746;10.058;2022-08-19T08:13:53;19.50;86.67
67279;DHT22;54193;53.746;10.058;2022-08-19T08:16:39;19.37;86.42
67279;DHT22;54193;53.746;10.058;2022-08-19T08:19:26;19.35;86.97
67279;DHT22;54193;53.746;10.058;2022-08-19T08:22:15;19.30;87.05
67279;DHT22;54193;53.746;10.058;2022-08-19T08:25:22;19.28;87.43
67279;DHT22;54193;53.746;10.058;2022-08-19T08:28:08;19.31;87.80
67279;DHT22;54193;53.746;10.058;2022-08-19T08:30:57;19.40;87.45
67279;DHT22;54193;53.746;10.058;2022-08-19T08:33:43;19.27;87.23
67279;DHT22;54193;53.746;10.058;2022-08-19T08:36:29;19.23;87.54
67279;DHT22;54193;53.746;10.058;2022-08-19T08:39:20;19.34;87.74
67279;DHT22;54193;53.746;10.058;2022-08-19T08:42:30;19.16;88.03
67279;DHT22;54193;53.746;10.058;2022-08-19T08:45:18;19.28;87.59
67279;DHT22;54193;53.746;10.058;2022-08-19T08:48:20;19.16;87.97
67279;DHT22;54193;53.746;10.058;2022-08-19T08:51:12;19.34;87.66
67279;DHT22;54193;53.746;10.058;2022-08-19T08:54:00;19.35;87.54
67279;DHT22;54193;53.746;10.058;2022-08-19T08:56:48;19.48;87.17
67279;DHT22;54193;53.746;10.058;2022-08-19T08:59:38;19.38;87.40
67279;DHT22;54193;53.746;10.058;2022-08-19T09:02:26;19.37;87.26
67279;DHT22;54193;53.746;10.058;2022-08-19T09:05:12;19.48;86.74
67279;DHT22;54193;53.746;10.058;2022-08-19T09:10:51;19.43;86.75
67279;DHT22;54193;53.746;10.058;2022-08-19T09:16:52;19.72;85.96
67279;DHT22;54193;53.746;10.058;2022-08-19T09:19:54;19.38;86.34
67279;DHT22;54193;53.746;10.058;2022-08-19T09:22:43;19.38;86.07
67279;DHT22;54193;53.746;10.058;2022-08-19T09:25:31;19.37;86.54
67279;DHT22;54193;53.746;10.058;2022-08-19T09:28:19;19.55;86.33
67279;DHT22;54193;53.746;10.058;2022-08-19T09:31:05;19.53;85.51
67279;DHT22;54193;53.746;10.058;2022-08-19T09:33:52;19.58;85.84
67279;DHT22;54193;53.746;10.058;2022-08-19T09:36:38;19.51;85.11
67279;DHT22;54193;53.746;10.058;2022-08-19T09:39:24;19.64;85.03
67279;DHT22;54193;53.746;10.058;2022-08-19T09:42:10;19.55;85.15
67279;DHT22;54193;53.746;10.058;2022-08-19T09:44:57;19.57;85.26
67279;DHT22;54193;53.746;10.058;2022-08-19T09:47:43;19.51;85.16
67279;DHT22;54193;53.746;10.058;2022-08-19T09:50:30;19.57;85.44
67279;DHT22;54193;53.746;10.058;2022-08-19T09:53:20;19.59;85.45
67279;DHT22;54193;53.746;10.058;2022-08-19T09:56:07;19.61;85.32
67279;DHT22;54193;53.746;10.058;2022-08-19T09:58:53;19.76;85.21
67279;DHT22;54193;53.746;10.058;2022-08-19T10:01:39;19.93;84.59
67279;DHT22;54193;53.746;10.058;2022-08-19T10:04:25;20.02;84.46
67279;DHT22;54193;53.746;10.058;2022-08-19T10:07:30;20.08;83.77
67279;DHT22;54193;53.746;10.058;2022-08-19T10:10:16;20.24;83.11
67279;DHT22;54193;53.746;10.058;2022-08-19T10:13:01;20.51;82.72
67279;DHT22;54193;53.746;10.058;2022-08-19T10:15:47;20.78;81.21
67279;DHT22;54193;53.746;10.058;2022-08-19T10:18:36;20.99;81.24
67279;DHT22;54193;53.746;10.058;2022-08-19T10:21:28;21.00;80.05
67279;DHT22;54193;53.746;10.058;2022-08-19T10:24:14;21.13;80.35
67279;DHT22;54193;53.746;10.058;2022-08-19T10:27:01;20.71;80.92
67279;DHT22;54193;53.746;10.058;2022-08-19T10:29:48;20.60;82.15
67279;DHT22;54193;53.746;10.058;2022-08-19T10:32:34;20.43;82.01
67279;DHT22;54193;53.746;10.058;2022-08-19T10:35:20;20.55;82.15
67279;DHT22;54193;53.746;10.058;2022-08-19T10:38:05;20.48;81.91
67279;DHT22;54193;53.746;10.058;2022-08-19T10:40:51;20.52;82.27
67279;DHT22;54193;53.746;10.058;2022-08-19T10:43:39;20.77;81.18
67279;DHT22;54193;53.746;10.058;2022-08-19T10:46:26;20.79;81.40
67279;DHT22;54193;53.746;10.058;2022-08-19T10:49:13;20.92;80.35
67279;DHT22;54193;53.746;10.058;2022-08-19T10:51:58;20.64;81.59
67279;DHT22;54193;53.746;10.058;2022-08-19T10:55:04;20.85;81.52
67279;DHT22;54193;53.746;10.058;2022-08-19T10:58:11;20.54;81.87
67279;DHT22;54193;53.746;10.058;2022-08-19T11:00:58;20.48;82.00
67279;DHT22;54193;53.746;10.058;2022-08-19T11:03:44;20.48;82.66
67279;DHT22;54193;53.746;10.058;2022-08-19T11:06:34;20.58;81.53
67279;DHT22;54193;53.746;10.058;2022-08-19T11:09:22;20.60;81.68
67279;DHT22;54193;53.746;10.058;2022-08-19T11:12:11;20.70;81.49
67279;DHT22;54193;53.746;10.058;2022-08-19T11:14:58;20.95;80.64
67279;DHT22;54193;53.746;10.058;2022-08-19T11:17:44;20.89;80.42
67279;DHT22;54193;53.746;10.058;2022-08-19T11:20:30;21.02;80.41
67279;DHT22;54193;53.746;10.058;2022-08-19T11:23:16;20.96;80.76
67279;DHT22;54193;53.746;10.058;2022-08-19T11:26:02;20.85;80.88
67279;DHT22;54193;53.746;10.058;2022-08-19T11:28:49;20.94;81.08
67279;DHT22;54193;53.746;10.058;2022-08-19T11:31:40;20.91;80.45
67279;DHT22;54193;53.746;10.058;2022-08-19T11:34:27;21.06;79.67
67279;DHT22;54193;53.746;10.058;2022-08-19T11:37:13;21.15;79.56
67279;DHT22;54193;53.746;10.058;2022-08-19T11:39:59;21.22;79.41
67279;DHT22;54193;53.746;10.058;2022-08-19T11:42:45;21.43;78.30
67279;DHT22;54193;53.746;10.058;2022-08-19T11:45:42;21.65;78.22
67279;DHT22;54193;53.746;10.058;2022-08-19T11:48:28;21.32;79.58
67279;DHT22;54193;53.746;10.058;2022-08-19T11:51:17;21.47;78.41
67279;DHT22;54193;53.746;10.058;2022-08-19T11:54:05;21.90;77.59
67279;DHT22;54193;53.746;10.058;2022-08-19T11:56:51;21.80;77.48
67279;DHT22;54193;53.746;10.058;2022-08-19T11:59:37;21.64;78.22
67279;DHT22;54193;53.746;10.058;2022-08-19T12:02:22;21.70;77.66
67279;DHT22;54193;53.746;10.058;2022-08-19T12:05:09;21.78;77.54
67279;DHT22;54193;53.746;10.058;2022-08-19T12:07:55;22.01;77.34
67279;DHT22;54193;53.746;10.058;2022-08-19T12:10:42;21.73;77.66
67279;DHT22;54193;53.746;10.058;2022-08-19T12:13:30;21.55;78.10
67279;DHT22;54193;53.746;10.058;2022-08-19T12:16:27;21.55;78.31
67279;DHT22;54193;53.746;10.058;2022-08-19T12:19:13;21.80;77.27
67279;DHT22;54193;53.746;10.058;2022-08-19T12:22:00;22.01;77.16
67279;DHT22;54193;53.746;10.058;2022-08-19T12:24:48;22.19;77.18
67279;DHT22;54193;53.746;10.058;2022-08-19T12:27:36;21.85;77.76
67279;DHT22;54193;53.746;10.058;2022-08-19T12:30:22;21.77;77.43
67279;DHT22;54193;53.746;10.058;2022-08-19T12:33:07;21.47;78.26
67279;DHT22;54193;53.746;10.058;2022-08-19T12:35:54;21.32;78.75
67279;DHT22;54193;53.746;10.058;2022-08-19T12:38:40;21.25;78.94
67279;DHT22;54193;53.746;10.058;2022-08-19T12:41:26;21.43;78.53
67279;DHT22;54193;53.746;10.058;2022-08-19T12:44:13;21.63;77.73
67279;DHT22;54193;53.746;10.058;2022-08-19T12:47:00;21.80;76.84
67279;DHT22;54193;53.746;10.058;2022-08-19T12:49:46;21.67;77.20
67279;DHT22;54193;53.746;10.058;2022-08-19T12:52:31;22.22;77.38
67279;DHT22;54193;53.746;10.058;2022-08-19T12:55:17;22.59;74.31
67279;DHT22;54193;53.746;10.058;2022-08-19T12:58:06;23.12;72.60
67279;DHT22;54193;53.746;10.058;2022-08-19T13:00:51;23.92;72.44
67279;DHT22;54193;53.746;10.058;2022-08-19T13:03:38;23.84;70.19
67279;DHT22;54193;53.746;10.058;2022-08-19T13:06:24;23.05;71.49
67279;DHT22;54193;53.746;10.058;2022-08-19T13:09:10;22.57;72.88
67279;DHT22;54193;53.746;10.058;2022-08-19T13:11:55;22.92;72.72
67279;DHT22;54193;53.746;10.058;2022-08-19T13:14:42;23.18;72.43
67279;DHT22;54193;53.746;10.058;2022-08-19T13:17:28;22.74;72.70
67279;DHT22;54193;53.746;10.058;2022-08-19T13:20:16;22.46;73.82
67279;DHT22;54193;53.746;10.058;2022-08-19T13:23:02;22.50;73.75
67279;DHT22;54193;53.746;10.058;2022-08-19T13:26:02;22.63;73.86
67279;DHT22;54193;53.746;10.058;2022-08-19T13:28:48;22.94;72.49
67279;DHT22;54193;53.746;10.058;2022-08-19T13:31:53;23.01;72.08
67279;DHT22;54193;53.746;10.058;2022-08-19T13:34:57;23.05;71.76
67279;DHT22;54193;53.746;10.058;2022-08-19T13:37:43;23.42;71.25
67279;DHT22;54193;53.746;10.058;2022-08-19T13:40:31;23.71;71.04
67279;DHT22;54193;53.746;10.058;2022-08-19T13:43:20;24.10;70.18
67279;DHT22;54193;53.746;10.058;2022-08-19T13:46:09;24.21;68.83
67279;DHT22;54193;53.746;10.058;2022-08-19T13:48:58;23.36;70.93
67279;DHT22;54193;53.746;10.058;2022-08-19T13:51:44;23.32;70.79
67279;DHT22;54193;53.746;10.058;2022-08-19T13:54:30;23.42;70.71
67279;DHT22;54193;53.746;10.058;2022-08-19T13:57:16;23.71;70.26
67279;DHT22;54193;53.746;10.058;2022-08-19T14:00:03;23.46;70.83
67279;DHT22;54193;53.746;10.058;2022-08-19T14:02:51;23.29;71.28
67279;DHT22;54193;53.746;10.058;2022-08-19T14:05:37;23.21;71.43
67279;DHT22;54193;53.746;10.058;2022-08-19T14:08:23;22.92;72.69
67279;DHT22;54193;53.746;10.058;2022-08-19T14:11:09;22.91;72.19
67279;DHT22;54193;53.746;10.058;2022-08-19T14:13:55;22.88;72.41
67279;DHT22;54193;53.746;10.058;2022-08-19T14:16:41;22.68;72.52
67279;DHT22;54193;53.746;10.058;2022-08-19T14:19:26;22.68;72.30
67279;DHT22;54193;53.746;10.058;2022-08-19T14:22:12;22.67;71.82
67279;DHT22;54193;53.746;10.058;2022-08-19T14:24:57;22.98;71.40
67279;DHT22;54193;53.746;10.058;2022-08-19T14:27:44;23.07;70.91
67279;DHT22;54193;53.746;10.058;2022-08-19T14:30:32;22.63;71.39
67279;DHT22;54193;53.746;10.058;2022-08-19T14:33:18;22.97;72.20
67279;DHT22;54193;53.746;10.058;2022-08-19T14:36:04;23.15;70.29
67279;DHT22;54193;53.746;10.058;2022-08-19T14:38:50;23.02;70.61
67279;DHT22;54193;53.746;10.058;2022-08-19T14:41:36;22.91;71.16
67279;DHT22;54193;53.746;10.058;2022-08-19T14:44:24;23.23;71.11
67279;DHT22;54193;53.746;10.058;2022-08-19T14:47:10;23.56;70.56
67279;DHT22;54193;53.746;10.058;2022-08-19T14:49:56;23.53;70.68
67279;DHT22;54193;53.746;10.058;2022-08-19T14:52:41;23.70;70.15
67279;DHT22;54193;53.746;10.058;2022-08-19T14:55:28;23.70;70.04
67279;DHT22;54193;53.746;10.058;2022-08-19T14:58:15;23.66;70.12
67279;DHT22;54193;53.746;10.058;2022-08-19T15:01:01;23.70;70.21
67279;DHT22;54193;53.746;10.058;2022-08-19T15:03:49;23.53;70.00
67279;DHT22;54193;53.746;10.058;2022-08-19T15:06:35;23.67;70.17
67279;DHT22;54193;53.746;10.058;2022-08-19T15:09:20;23.50;70.88
67279;DHT22;54193;53.746;10.058;2022-08-19T15:12:06;23.14;71.01
67279;DHT22;54193;53.746;10.058;2022-08-19T15:14:52;22.83;71.74
67279;DHT22;54193;53.746;10.058;2022-08-19T15:17:40;23.11;71.22
67279;DHT22;54193;53.746;10.058;2022-08-19T15:20:26;23.10;71.52
67279;DHT22;54193;53.746;10.058;2022-08-19T15:23:14;23.00;71.17
67279;DHT22;54193;53.746;10.058;2022-08-19T15:26:00;22.80;71.76
67279;DHT22;54193;53.746;10.058;2022-08-19T15:28:47;22.70;72.42
67279;DHT22;54193;53.746;10.058;2022-08-19T15:31:32;22.67;72.38
67279;DHT22;54193;53.746;10.058;2022-08-19T15:34:23;22.68;72.04
67279;DHT22;54193;53.746;10.058;2022-08-19T15:37:09;22.77;72.12
67279;DHT22;54193;53.746;10.058;2022-08-19T15:39:55;22.90;72.32
67279;DHT22;54193;53.746;10.058;2022-08-19T15:42:41;22.92;72.17
67279;DHT22;54193;53.746;10.058;2022-08-19T15:45:27;23.02;71.68
67279;DHT22;54193;53.746;10.058;2022-08-19T15:48:17;23.11;71.34
67279;DHT22;54193;53.746;10.058;2022-08-19T15:51:02;22.94;71.37
67279;DHT22;54193;53.746;10.058;2022-08-19T15:53:48;22.78;71.64
67279;DHT22;54193;53.746;10.058;2022-08-19T15:56:34;22.67;72.31
67279;DHT22;54193;53.746;10.058;2022-08-19T15:59:39;22.74;72.18
67279;DHT22;54193;53.746;10.058;2022-08-19T16:02:43;22.80;71.67
67279;DHT22;54193;53.746;10.058;2022-08-19T16:05:48;22.83;72.09
67279;DHT22;54193;53.746;10.058;2022-08-19T16:08:56;22.64;72.12
67279;DHT22;54193;53.746;10.058;2022-08-19T16:11:43;22.57;72.16
67279;DHT22;54193;53.746;10.058;2022-08-19T16:14:32;22.63;72.08
67279;DHT22;54193;53.746;10.058;2022-08-19T16:17:18;22.50;72.10
67279;DHT22;54193;53.746;10.058;2022-08-19T16:20:05;22.45;72.17
67279;DHT22;54193;53.746;10.058;2022-08-19T16:22:54;22.37;72.23
67279;DHT22;54193;53.746;10.058;2022-08-19T16:25:40;22.23;72.79
67279;DHT22;54193;53.746;10.058;2022-08-19T16:28:26;22.20;72.78
67279;DHT22;54193;53.746;10.058;2022-08-19T16:31:13;22.30;72.94
67279;DHT22;54193;53.746;10.058;2022-08-19T16:33:59;22.32;72.27
67279;DHT22;54193;53.746;10.058;2022-08-19T16:36:45;22.10;72.91
67279;DHT22;54193;53.746;10.058;2022-08-19T16:39:31;22.32;72.59
67279;DHT22;54193;53.746;10.058;2022-08-19T16:42:16;22.40;72.47
67279;DHT22;54193;53.746;10.058;2022-08-19T16:45:03;22.46;71.93
67279;DHT22;54193;53.746;10.058;2022-08-19T16:47:48;22.54;71.22
67279;DHT22;54193;53.746;10.058;2022-08-19T16:50:34;22.40;71.81
67279;DHT22;54193;53.746;10.058;2022-08-19T16:53:22;22.43;72.06
67279;DHT22;54193;53.746;10.058;2022-08-19T16:56:11;22.16;72.67
67279;DHT22;54193;53.746;10.058;2022-08-19T16:58:57;22.15;72.92
67279;DHT22;54193;53.746;10.058;2022-08-19T17:01:44;22.08;73.66
67279;DHT22;54193;53.746;10.058;2022-08-19T17:04:29;22.04;73.12
67279;DHT22;54193;53.746;10.058;2022-08-19T17:07:15;21.88;73.30
67279;DHT22;54193;53.746;10.058;2022-08-19T17:10:03;21.88;73.68
67279;DHT22;54193;53.746;10.058;2022-08-19T17:12:49;21.77;73.57
67279;DHT22;54193;53.746;10.058;2022-08-19T17:15:36;21.80;73.89
67279;DHT22;54193;53.746;10.058;2022-08-19T17:18:22;21.75;75.03
67279;DHT22;54193;53.746;10.058;2022-08-19T17:21:08;21.65;74.33
67279;DHT22;54193;53.746;10.058;2022-08-19T17:23:55;21.63;75.37
67279;DHT22;54193;53.746;10.058;2022-08-19T17:26:40;21.50;75.09
67279;DHT22;54193;53.746;10.058;2022-08-19T17:29:26;21.53;75.12
67279;DHT22;54193;53.746;10.058;2022-08-19T17:32:12;21.49;75.56